Main page
Satellite images 10-day forecastsClimateMarine weather Cyclones Lightning AirportsFAQ Newsletter About
Weather : Europe Africa North America South America Asia Australia-Oceania Others
Languages Contact

Budapest, Hungary

Budapest Ferenc Liszt International Airport

latitude: 47-26N, longitude: 019-16E, elevation: 151 m


METAR: LHBP 310430Z 35005KT 330V030 CAVOK 18/11 Q1015 NOSIG
TAF: LHBP 302300Z 3100/3124 VRB03KT CAVOK BECMG 3107/3109 35007KT BECMG 3115/3117 VRB03KT

Time: 07:00 (05:00 UTC)

Current weather observation

The report was made 30 minutes ago, at 04:30 UTC
Wind 5 kt from the North, varying between North/Northwest and North/Northeast
Temperature 18°C
Humidity 64%
Pressure 1015 hPa
Visibility 10 km or more
no clouds below 1500 m and no cumulonimbus

Change units

Forecast

The report was made 6 hours and 0 minutes ago, at 23:00 UTC
Forecast valid from 31 at 00 UTC to 31 at 24 UTC
Wind 3 kt from variable directions
Visibility 10 km or more
no clouds below 1500 m and no cumulonimbus
Becoming
from 31 at 07 UTC to 31 at 09 UTC
Wind 7 kt from the North
Becoming
from 31 at 15 UTC to 31 at 17 UTC
Wind 3 kt from variable directions
The information on this site is subject to a disclaimer
Weather : Europe Africa North America South America Asia Australia-Oceania Others
Satellite images 10-day forecastsClimateMarine weather Cyclones Lightning AirportsFAQ Languages Contact Newsletter About